sensor_id;sensor_type;location;lat;lon;timestamp;pressure;altitude;pressure_sealevel;temperature;humidity
3968;BME280;9221;42.646;23.380;2023-06-22T00:00:46;94901.88;;;20.43;74.39
3968;BME280;9221;42.646;23.380;2023-06-22T00:03:12;94947.06;;;20.67;74.45
3968;BME280;9221;42.646;23.380;2023-06-22T00:05:37;94899.16;;;20.10;75.53
3968;BME280;9221;42.646;23.380;2023-06-22T00:08:03;94947.81;;;20.34;76.38
3968;BME280;9221;42.646;23.380;2023-06-22T00:10:32;94952.75;;;20.23;76.77
3968;BME280;9221;42.646;23.380;2023-06-22T00:12:57;94952.25;;;20.00;77.78
3968;BME280;9221;42.646;23.380;2023-06-22T00:15:23;94780.53;;;18.92;78.30
3968;BME280;9221;42.646;23.380;2023-06-22T00:17:49;94886.84;;;19.67;78.47
3968;BME280;9221;42.646;23.380;2023-06-22T00:20:15;94883.09;;;19.61;78.49
3968;BME280;9221;42.646;23.380;2023-06-22T00:22:42;94922.13;;;19.84;78.70
3968;BME280;9221;42.646;23.380;2023-06-22T00:25:08;94949.72;;;19.91;79.09
3968;BME280;9221;42.646;23.380;2023-06-22T00:27:34;94870.69;;;19.47;78.90
3968;BME280;9221;42.646;23.380;2023-06-22T00:30:00;94933.06;;;19.89;79.06
3968;BME280;9221;42.646;23.380;2023-06-22T00:32:25;94854.78;;;19.39;79.55
3968;BME280;9221;42.646;23.380;2023-06-22T00:34:51;94851.88;;;19.34;79.95
3968;BME280;9221;42.646;23.380;2023-06-22T00:37:17;94886.91;;;19.39;79.73
3968;BME280;9221;42.646;23.380;2023-06-22T00:39:43;94921.50;;;19.82;78.26
3968;BME280;9221;42.646;23.380;2023-06-22T00:42:08;95016.94;;;19.75;77.12
3968;BME280;9221;42.646;23.380;2023-06-22T00:44:35;94861.69;;;19.61;76.69
3968;BME280;9221;42.646;23.380;2023-06-22T00:47:00;94914.97;;;20.05;75.73
3968;BME280;9221;42.646;23.380;2023-06-22T00:49:26;94863.22;;;19.36;76.75
3968;BME280;9221;42.646;23.380;2023-06-22T00:51:52;94915.50;;;19.10;79.11
3968;BME280;9221;42.646;23.380;2023-06-22T00:54:17;94924.50;;;19.31;80.41
3968;BME280;9221;42.646;23.380;2023-06-22T00:56:51;94928.97;;;19.23;81.06
3968;BME280;9221;42.646;23.380;2023-06-22T00:59:17;94857.03;;;18.72;81.74
3968;BME280;9221;42.646;23.380;2023-06-22T01:01:44;94848.00;;;18.73;82.05
3968;BME280;9221;42.646;23.380;2023-06-22T01:04:09;94855.47;;;18.84;81.77
3968;BME280;9221;42.646;23.380;2023-06-22T01:06:41;94908.31;;;19.10;81.73
3968;BME280;9221;42.646;23.380;2023-06-22T01:09:15;94936.09;;;19.16;82.30
3968;BME280;9221;42.646;23.380;2023-06-22T01:11:45;94964.50;;;19.17;82.17
3968;BME280;9221;42.646;23.380;2023-06-22T01:14:28;94941.81;;;19.35;81.95
3968;BME280;9221;42.646;23.380;2023-06-22T01:16:58;94927.94;;;19.24;82.79
3968;BME280;9221;42.646;23.380;2023-06-22T01:19:49;94927.78;;;19.33;82.34
3968;BME280;9221;42.646;23.380;2023-06-22T01:22:25;94937.47;;;19.34;82.79
3968;BME280;9221;42.646;23.380;2023-06-22T01:27:53;94934.56;;;19.64;82.27
3968;BME280;9221;42.646;23.380;2023-06-22T01:30:23;94926.69;;;19.55;82.21
3968;BME280;9221;42.646;23.380;2023-06-22T01:32:53;94933.28;;;19.59;82.65
3968;BME280;9221;42.646;23.380;2023-06-22T01:35:20;94947.94;;;19.64;82.57
3968;BME280;9221;42.646;23.380;2023-06-22T01:37:46;94973.59;;;19.51;82.13
3968;BME280;9221;42.646;23.380;2023-06-22T01:40:13;94893.38;;;19.58;81.41
3968;BME280;9221;42.646;23.380;2023-06-22T01:42:39;94944.63;;;19.97;80.92
3968;BME280;9221;42.646;23.380;2023-06-22T01:45:05;94901.19;;;19.59;81.11
3968;BME280;9221;42.646;23.380;2023-06-22T01:47:32;94883.38;;;19.32;82.04
3968;BME280;9221;42.646;23.380;2023-06-22T01:49:59;94874.16;;;19.06;82.91
3968;BME280;9221;42.646;23.380;2023-06-22T01:52:24;94977.22;;;19.43;83.24
3968;BME280;9221;42.646;23.380;2023-06-22T01:54:49;94950.13;;;19.47;83.75
3968;BME280;9221;42.646;23.380;2023-06-22T01:57:15;94892.72;;;19.14;83.58
3968;BME280;9221;42.646;23.380;2023-06-22T01:59:51;94986.34;;;19.49;83.53
3968;BME280;9221;42.646;23.380;2023-06-22T02:02:20;94803.03;;;18.48;83.69
3968;BME280;9221;42.646;23.380;2023-06-22T02:04:56;94940.28;;;19.25;84.43
3968;BME280;9221;42.646;23.380;2023-06-22T02:07:23;94960.66;;;19.26;84.89
3968;BME280;9221;42.646;23.380;2023-06-22T02:09:50;94916.69;;;19.01;84.58
3968;BME280;9221;42.646;23.380;2023-06-22T02:12:20;94906.59;;;18.96;84.72
3968;BME280;9221;42.646;23.380;2023-06-22T02:14:47;94960.66;;;19.26;84.36
3968;BME280;9221;42.646;23.380;2023-06-22T02:17:13;94993.56;;;19.27;84.52
3968;BME280;9221;42.646;23.380;2023-06-22T02:19:41;94983.72;;;19.27;84.29
3968;BME280;9221;42.646;23.380;2023-06-22T02:22:06;94890.50;;;18.89;84.42
3968;BME280;9221;42.646;23.380;2023-06-22T02:24:32;94941.28;;;19.18;84.32
3968;BME280;9221;42.646;23.380;2023-06-22T02:26:59;94949.78;;;19.28;84.42
3968;BME280;9221;42.646;23.380;2023-06-22T02:29:25;94893.88;;;19.05;82.61
3968;BME280;9221;42.646;23.380;2023-06-22T02:31:50;94928.94;;;19.17;82.20
3968;BME280;9221;42.646;23.380;2023-06-22T02:34:16;94848.72;;;18.38;82.77
3968;BME280;9221;42.646;23.380;2023-06-22T02:36:47;94946.44;;;19.19;83.51
3968;BME280;9221;42.646;23.380;2023-06-22T02:39:24;94937.81;;;18.96;84.13
3968;BME280;9221;42.646;23.380;2023-06-22T02:41:53;94930.84;;;18.94;84.55
3968;BME280;9221;42.646;23.380;2023-06-22T02:44:19;94913.25;;;18.85;83.96
3968;BME280;9221;42.646;23.380;2023-06-22T02:46:46;94937.47;;;19.05;83.44
3968;BME280;9221;42.646;23.380;2023-06-22T02:49:12;94941.19;;;19.04;83.43
3968;BME280;9221;42.646;23.380;2023-06-22T02:51:46;94894.28;;;18.80;83.78
3968;BME280;9221;42.646;23.380;2023-06-22T02:54:11;94949.13;;;19.19;83.59
3968;BME280;9221;42.646;23.380;2023-06-22T02:56:37;94964.34;;;19.25;83.56
3968;BME280;9221;42.646;23.380;2023-06-22T02:59:03;94970.25;;;19.14;83.97
3968;BME280;9221;42.646;23.380;2023-06-22T03:01:28;94902.31;;;18.80;83.95
3968;BME280;9221;42.646;23.380;2023-06-22T03:03:56;94965.63;;;19.30;83.41
3968;BME280;9221;42.646;23.380;2023-06-22T03:06:21;94990.75;;;19.35;82.73
3968;BME280;9221;42.646;23.380;2023-06-22T03:08:58;94969.00;;;19.38;82.66
3968;BME280;9221;42.646;23.380;2023-06-22T03:11:24;95008.00;;;19.26;82.53
3968;BME280;9221;42.646;23.380;2023-06-22T03:13:49;94964.50;;;19.45;82.55
3968;BME280;9221;42.646;23.380;2023-06-22T03:16:17;94943.06;;;19.39;81.93
3968;BME280;9221;42.646;23.380;2023-06-22T03:18:42;94969.72;;;19.25;81.23
3968;BME280;9221;42.646;23.380;2023-06-22T03:21:08;94978.06;;;19.44;81.50
3968;BME280;9221;42.646;23.380;2023-06-22T03:23:33;94971.25;;;19.13;82.40
3968;BME280;9221;42.646;23.380;2023-06-22T03:25:58;94924.22;;;18.69;83.20
3968;BME280;9221;42.646;23.380;2023-06-22T03:28:24;94940.88;;;18.71;83.94
3968;BME280;9221;42.646;23.380;2023-06-22T03:30:49;94991.69;;;19.21;83.62
3968;BME280;9221;42.646;23.380;2023-06-22T03:33:14;94993.03;;;19.10;83.94
3968;BME280;9221;42.646;23.380;2023-06-22T03:35:40;94987.00;;;19.01;84.21
3968;BME280;9221;42.646;23.380;2023-06-22T03:38:05;94862.53;;;18.20;84.16
3968;BME280;9221;42.646;23.380;2023-06-22T03:40:30;94909.06;;;18.54;84.06
3968;BME280;9221;42.646;23.380;2023-06-22T03:42:56;95048.53;;;19.08;84.00
3968;BME280;9221;42.646;23.380;2023-06-22T03:45:21;94937.69;;;18.82;84.06
3968;BME280;9221;42.646;23.380;2023-06-22T03:47:47;95024.84;;;19.26;83.69
3968;BME280;9221;42.646;23.380;2023-06-22T03:50:12;94945.25;;;19.00;83.08
3968;BME280;9221;42.646;23.380;2023-06-22T03:52:38;94929.03;;;18.80;83.25
3968;BME280;9221;42.646;23.380;2023-06-22T03:55:05;94993.97;;;19.24;83.16
3968;BME280;9221;42.646;23.380;2023-06-22T03:57:31;95061.41;;;19.19;82.54
3968;BME280;9221;42.646;23.380;2023-06-22T03:59:56;95017.84;;;19.82;82.25
3968;BME280;9221;42.646;23.380;2023-06-22T04:02:22;95005.53;;;19.88;82.30
3968;BME280;9221;42.646;23.380;2023-06-22T04:04:48;94924.41;;;19.52;81.85
3968;BME280;9221;42.646;23.380;2023-06-22T04:07:13;95025.03;;;20.17;81.01
3968;BME280;9221;42.646;23.380;2023-06-22T04:09:38;95018.50;;;20.33;81.58
3968;BME280;9221;42.646;23.380;2023-06-22T04:12:04;94959.47;;;20.06;80.64
3968;BME280;9221;42.646;23.380;2023-06-22T04:14:30;94961.19;;;20.27;79.77
3968;BME280;9221;42.646;23.380;2023-06-22T04:16:55;94945.13;;;20.34;78.56
3968;BME280;9221;42.646;23.380;2023-06-22T04:19:21;95005.06;;;20.81;78.28
3968;BME280;9221;42.646;23.380;2023-06-22T04:21:46;94956.34;;;20.57;78.02
3968;BME280;9221;42.646;23.380;2023-06-22T04:24:14;95001.34;;;20.82;78.20
3968;BME280;9221;42.646;23.380;2023-06-22T04:26:39;94947.25;;;20.58;77.91
3968;BME280;9221;42.646;23.380;2023-06-22T04:29:07;94997.66;;;20.83;78.49
3968;BME280;9221;42.646;23.380;2023-06-22T04:31:34;94978.97;;;20.41;79.25
3968;BME280;9221;42.646;23.380;2023-06-22T04:34:02;94994.78;;;20.29;80.61
3968;BME280;9221;42.646;23.380;2023-06-22T04:36:39;94984.63;;;20.11;81.32
3968;BME280;9221;42.646;23.380;2023-06-22T04:39:10;94845.53;;;19.35;81.87
3968;BME280;9221;42.646;23.380;2023-06-22T04:41:40;94991.91;;;20.24;81.27
3968;BME280;9221;42.646;23.380;2023-06-22T04:44:10;94992.94;;;20.30;81.42
3968;BME280;9221;42.646;23.380;2023-06-22T04:46:36;94977.69;;;20.31;81.16
3968;BME280;9221;42.646;23.380;2023-06-22T04:49:09;94924.09;;;20.17;80.82
3968;BME280;9221;42.646;23.380;2023-06-22T04:51:41;94939.63;;;20.49;79.70
3968;BME280;9221;42.646;23.380;2023-06-22T04:54:08;94941.88;;;20.38;80.55
3968;BME280;9221;42.646;23.380;2023-06-22T04:56:34;95013.72;;;20.76;81.12
3968;BME280;9221;42.646;23.380;2023-06-22T04:58:59;94994.34;;;20.94;79.88
3968;BME280;9221;42.646;23.380;2023-06-22T05:01:25;94941.16;;;20.85;79.17
3968;BME280;9221;42.646;23.380;2023-06-22T05:03:51;95003.44;;;21.47;78.27
3968;BME280;9221;42.646;23.380;2023-06-22T05:06:23;95063.31;;;21.81;76.80
3968;BME280;9221;42.646;23.380;2023-06-22T05:08:53;95011.63;;;21.92;75.80
3968;BME280;9221;42.646;23.380;2023-06-22T05:11:23;95080.41;;;22.07;74.55
3968;BME280;9221;42.646;23.380;2023-06-22T05:13:48;95002.50;;;22.13;74.22
3968;BME280;9221;42.646;23.380;2023-06-22T05:16:13;94956.28;;;21.91;73.97
3968;BME280;9221;42.646;23.380;2023-06-22T05:18:39;94999.56;;;22.35;73.62
3968;BME280;9221;42.646;23.380;2023-06-22T05:21:04;94994.28;;;22.54;72.95
3968;BME280;9221;42.646;23.380;2023-06-22T05:23:30;94944.56;;;22.38;72.39
3968;BME280;9221;42.646;23.380;2023-06-22T05:25:55;95075.47;;;22.76;70.82
3968;BME280;9221;42.646;23.380;2023-06-22T05:28:22;94958.31;;;22.55;70.25
3968;BME280;9221;42.646;23.380;2023-06-22T05:30:48;94998.94;;;22.72;70.71
3968;BME280;9221;42.646;23.380;2023-06-22T05:33:13;94996.81;;;22.80;70.15
3968;BME280;9221;42.646;23.380;2023-06-22T05:35:39;94967.47;;;22.79;69.52
3968;BME280;9221;42.646;23.380;2023-06-22T05:38:04;94978.59;;;22.82;69.26
3968;BME280;9221;42.646;23.380;2023-06-22T05:40:29;94962.63;;;22.88;69.03
3968;BME280;9221;42.646;23.380;2023-06-22T05:42:55;95031.06;;;23.30;69.35
3968;BME280;9221;42.646;23.380;2023-06-22T05:45:20;95030.91;;;23.25;69.82
3968;BME280;9221;42.646;23.380;2023-06-22T05:47:45;95044.19;;;23.20;70.28
3968;BME280;9221;42.646;23.380;2023-06-22T05:50:11;95031.41;;;23.41;69.87
3968;BME280;9221;42.646;23.380;2023-06-22T05:52:36;95046.41;;;23.55;69.96
3968;BME280;9221;42.646;23.380;2023-06-22T05:55:02;95071.69;;;23.54;69.19
3968;BME280;9221;42.646;23.380;2023-06-22T05:57:27;95022.66;;;23.45;68.32
3968;BME280;9221;42.646;23.380;2023-06-22T05:59:53;95000.91;;;23.47;67.47
3968;BME280;9221;42.646;23.380;2023-06-22T06:02:19;95056.91;;;23.89;67.43
3968;BME280;9221;42.646;23.380;2023-06-22T06:04:45;95030.78;;;23.89;67.29
3968;BME280;9221;42.646;23.380;2023-06-22T06:07:10;94981.50;;;23.82;67.06
3968;BME280;9221;42.646;23.380;2023-06-22T06:09:35;94982.53;;;23.81;67.09
3968;BME280;9221;42.646;23.380;2023-06-22T06:12:01;95095.03;;;24.11;67.00
3968;BME280;9221;42.646;23.380;2023-06-22T06:14:28;95033.34;;;24.21;67.20
3968;BME280;9221;42.646;23.380;2023-06-22T06:16:53;95015.59;;;23.70;69.09
3968;BME280;9221;42.646;23.380;2023-06-22T06:19:19;94963.75;;;22.80;71.25
3968;BME280;9221;42.646;23.380;2023-06-22T06:21:44;95047.72;;;23.14;72.19
3968;BME280;9221;42.646;23.380;2023-06-22T06:24:11;95014.63;;;23.64;70.39
3968;BME280;9221;42.646;23.380;2023-06-22T06:26:36;94975.81;;;23.72;70.21
3968;BME280;9221;42.646;23.380;2023-06-22T06:29:02;95029.91;;;24.32;70.33
3968;BME280;9221;42.646;23.380;2023-06-22T06:31:27;94979.53;;;24.14;71.18
3968;BME280;9221;42.646;23.380;2023-06-22T06:33:54;94986.78;;;24.32;71.38
3968;BME280;9221;42.646;23.380;2023-06-22T06:36:19;94980.47;;;24.39;71.93
3968;BME280;9221;42.646;23.380;2023-06-22T06:38:45;94952.50;;;24.03;69.67
3968;BME280;9221;42.646;23.380;2023-06-22T06:41:13;95011.09;;;24.44;69.25
3968;BME280;9221;42.646;23.380;2023-06-22T06:43:38;95019.09;;;24.51;69.41
3968;BME280;9221;42.646;23.380;2023-06-22T06:46:04;95022.66;;;24.82;69.33
3968;BME280;9221;42.646;23.380;2023-06-22T06:48:29;95014.53;;;25.00;65.33
3968;BME280;9221;42.646;23.380;2023-06-22T06:50:55;95012.91;;;25.23;62.45
3968;BME280;9221;42.646;23.380;2023-06-22T06:53:20;95006.59;;;25.29;60.99
3968;BME280;9221;42.646;23.380;2023-06-22T06:55:45;95004.78;;;25.42;60.58
3968;BME280;9221;42.646;23.380;2023-06-22T06:58:11;94953.53;;;25.23;59.87
3968;BME280;9221;42.646;23.380;2023-06-22T07:00:38;94942.66;;;25.42;59.51
3968;BME280;9221;42.646;23.380;2023-06-22T07:03:04;95012.91;;;25.89;58.85
3968;BME280;9221;42.646;23.380;2023-06-22T07:05:29;95038.19;;;26.07;58.93
3968;BME280;9221;42.646;23.380;2023-06-22T07:07:55;94945.94;;;25.79;58.64
3968;BME280;9221;42.646;23.380;2023-06-22T07:10:20;94935.94;;;25.80;58.80
3968;BME280;9221;42.646;23.380;2023-06-22T07:12:46;94973.06;;;26.08;58.33
3968;BME280;9221;42.646;23.380;2023-06-22T07:15:13;94959.28;;;25.98;57.99
3968;BME280;9221;42.646;23.380;2023-06-22T07:17:39;94937.81;;;25.91;59.79
3968;BME280;9221;42.646;23.380;2023-06-22T07:20:08;95006.03;;;26.34;60.27
3968;BME280;9221;42.646;23.380;2023-06-22T07:22:36;94979.81;;;26.34;62.32
3968;BME280;9221;42.646;23.380;2023-06-22T07:25:02;94954.16;;;26.08;63.44
3968;BME280;9221;42.646;23.380;2023-06-22T07:27:34;94989.66;;;26.41;64.14
3968;BME280;9221;42.646;23.380;2023-06-22T07:30:02;94952.69;;;26.17;63.56
3968;BME280;9221;42.646;23.380;2023-06-22T07:32:27;94938.13;;;26.18;62.74
3968;BME280;9221;42.646;23.380;2023-06-22T07:34:54;94999.25;;;26.60;62.84
3968;BME280;9221;42.646;23.380;2023-06-22T07:37:19;94992.56;;;26.63;62.90
3968;BME280;9221;42.646;23.380;2023-06-22T07:39:44;95003.44;;;26.80;61.50
3968;BME280;9221;42.646;23.380;2023-06-22T07:42:10;94969.56;;;26.65;61.48
3968;BME280;9221;42.646;23.380;2023-06-22T07:44:35;94959.91;;;26.69;60.05
3968;BME280;9221;42.646;23.380;2023-06-22T07:47:00;95006.97;;;27.09;60.48
3968;BME280;9221;42.646;23.380;2023-06-22T07:49:28;94955.88;;;26.84;61.08
3968;BME280;9221;42.646;23.380;2023-06-22T07:51:53;95006.16;;;27.26;58.68
3968;BME280;9221;42.646;23.380;2023-06-22T07:54:18;94980.53;;;27.16;58.72
3968;BME280;9221;42.646;23.380;2023-06-22T07:56:46;94992.69;;;27.31;58.45
3968;BME280;9221;42.646;23.380;2023-06-22T07:59:11;94952.28;;;26.95;56.28
3968;BME280;9221;42.646;23.380;2023-06-22T08:01:36;95004.16;;;27.21;55.52
3968;BME280;9221;42.646;23.380;2023-06-22T08:04:02;94952.28;;;26.95;55.84
3968;BME280;9221;42.646;23.380;2023-06-22T08:06:30;95027.00;;;27.25;55.24
3968;BME280;9221;42.646;23.380;2023-06-22T08:08:55;94991.41;;;27.67;56.86
3968;BME280;9221;42.646;23.380;2023-06-22T08:11:22;94942.50;;;27.57;56.93
3968;BME280;9221;42.646;23.380;2023-06-22T08:13:49;94968.88;;;27.84;57.22
3968;BME280;9221;42.646;23.380;2023-06-22T08:16:14;94998.75;;;28.06;55.56
3968;BME280;9221;42.646;23.380;2023-06-22T08:18:40;94979.16;;;28.21;56.31
3968;BME280;9221;42.646;23.380;2023-06-22T08:21:05;95003.78;;;28.36;56.41
3968;BME280;9221;42.646;23.380;2023-06-22T08:23:30;94935.03;;;28.03;54.66
3968;BME280;9221;42.646;23.380;2023-06-22T08:25:56;94985.97;;;28.46;55.94
3968;BME280;9221;42.646;23.380;2023-06-22T08:28:21;94940.19;;;28.27;55.03
3968;BME280;9221;42.646;23.380;2023-06-22T08:30:47;94985.75;;;28.69;53.74
3968;BME280;9221;42.646;23.380;2023-06-22T08:33:12;94935.22;;;28.68;53.67
3968;BME280;9221;42.646;23.380;2023-06-22T08:35:38;94922.72;;;28.95;52.41
3968;BME280;9221;42.646;23.380;2023-06-22T08:38:03;94910.69;;;29.18;51.10
3968;BME280;9221;42.646;23.380;2023-06-22T08:40:29;94990.41;;;29.61;50.51
3968;BME280;9221;42.646;23.380;2023-06-22T08:42:54;94933.13;;;29.35;50.72
3968;BME280;9221;42.646;23.380;2023-06-22T08:45:20;94922.28;;;29.35;49.97
3968;BME280;9221;42.646;23.380;2023-06-22T08:47:46;94999.09;;;29.63;50.88
3968;BME280;9221;42.646;23.380;2023-06-22T08:50:12;94948.47;;;29.52;50.24
3968;BME280;9221;42.646;23.380;2023-06-22T08:52:38;94934.44;;;29.65;50.02
3968;BME280;9221;42.646;23.380;2023-06-22T08:55:06;94970.25;;;29.95;49.11
3968;BME280;9221;42.646;23.380;2023-06-22T08:57:32;94946.19;;;29.76;49.59
3968;BME280;9221;42.646;23.380;2023-06-22T08:59:58;94940.31;;;29.95;48.50
3968;BME280;9221;42.646;23.380;2023-06-22T09:02:27;94994.75;;;30.48;47.94
3968;BME280;9221;42.646;23.380;2023-06-22T09:04:56;94928.94;;;30.66;46.51
3968;BME280;9221;42.646;23.380;2023-06-22T09:07:23;94918.13;;;31.13;45.69
3968;BME280;9221;42.646;23.380;2023-06-22T09:09:50;94967.19;;;31.69;44.30
3968;BME280;9221;42.646;23.380;2023-06-22T09:12:16;94982.47;;;31.65;43.73
3968;BME280;9221;42.646;23.380;2023-06-22T09:14:41;94968.28;;;31.84;43.85
3968;BME280;9221;42.646;23.380;2023-06-22T09:17:07;94972.03;;;32.09;43.37
3968;BME280;9221;42.646;23.380;2023-06-22T09:19:32;94914.28;;;31.70;42.50
3968;BME280;9221;42.646;23.380;2023-06-22T09:21:58;94960.59;;;32.17;44.13
3968;BME280;9221;42.646;23.380;2023-06-22T09:24:23;94980.41;;;32.38;44.14
3968;BME280;9221;42.646;23.380;2023-06-22T09:26:49;94954.47;;;32.40;42.00
3968;BME280;9221;42.646;23.380;2023-06-22T09:29:15;94959.06;;;32.55;41.15
3968;BME280;9221;42.646;23.380;2023-06-22T09:31:40;94975.84;;;32.88;41.06
3968;BME280;9221;42.646;23.380;2023-06-22T09:34:06;94926.69;;;32.83;41.02
3968;BME280;9221;42.646;23.380;2023-06-22T09:36:31;94972.09;;;33.24;40.23
3968;BME280;9221;42.646;23.380;2023-06-22T09:38:57;94984.03;;;33.38;38.36
3968;BME280;9221;42.646;23.380;2023-06-22T09:41:24;94925.16;;;33.06;39.33
3968;BME280;9221;42.646;23.380;2023-06-22T09:43:49;94972.34;;;33.62;38.96
3968;BME280;9221;42.646;23.380;2023-06-22T09:46:15;95037.38;;;33.70;38.51
3968;BME280;9221;42.646;23.380;2023-06-22T09:48:41;94976.97;;;33.96;37.01
3968;BME280;9221;42.646;23.380;2023-06-22T09:51:06;94925.13;;;33.81;36.20
3968;BME280;9221;42.646;23.380;2023-06-22T09:53:31;94953.94;;;33.68;36.04
3968;BME280;9221;42.646;23.380;2023-06-22T09:55:57;94929.13;;;33.30;36.67
3968;BME280;9221;42.646;23.380;2023-06-22T09:58:23;94964.66;;;33.64;36.83
3968;BME280;9221;42.646;23.380;2023-06-22T10:00:49;94902.47;;;33.46;36.13
3968;BME280;9221;42.646;23.380;2023-06-22T10:03:15;94960.59;;;33.62;36.61
3968;BME280;9221;42.646;23.380;2023-06-22T10:05:41;94898.50;;;33.33;37.07
3968;BME280;9221;42.646;23.380;2023-06-22T10:08:06;94935.34;;;33.70;36.64
3968;BME280;9221;42.646;23.380;2023-06-22T10:10:33;94897.97;;;33.60;36.53
3968;BME280;9221;42.646;23.380;2023-06-22T10:13:08;94908.56;;;33.67;36.29
3968;BME280;9221;42.646;23.380;2023-06-22T10:15:37;94947.81;;;34.11;36.23
3968;BME280;9221;42.646;23.380;2023-06-22T10:18:03;94943.91;;;34.17;35.59
3968;BME280;9221;42.646;23.380;2023-06-22T10:20:29;94944.34;;;34.24;35.52
3968;BME280;9221;42.646;23.380;2023-06-22T10:22:54;94945.81;;;34.40;35.01
3968;BME280;9221;42.646;23.380;2023-06-22T10:25:20;94943.41;;;34.58;34.88
3968;BME280;9221;42.646;23.380;2023-06-22T10:27:46;94938.81;;;34.97;34.38
3968;BME280;9221;42.646;23.380;2023-06-22T10:30:12;94896.44;;;35.08;33.87
3968;BME280;9221;42.646;23.380;2023-06-22T10:32:38;94934.13;;;35.35;32.66
3968;BME280;9221;42.646;23.380;2023-06-22T10:35:05;94892.31;;;35.44;32.13
3968;BME280;9221;42.646;23.380;2023-06-22T10:37:30;94869.00;;;35.08;33.52
3968;BME280;9221;42.646;23.380;2023-06-22T10:39:55;94885.34;;;35.65;33.05
3968;BME280;9221;42.646;23.380;2023-06-22T10:42:21;94931.34;;;35.54;32.27
3968;BME280;9221;42.646;23.380;2023-06-22T10:44:46;94871.47;;;35.23;32.83
3968;BME280;9221;42.646;23.380;2023-06-22T10:47:11;94921.59;;;35.62;33.52
3968;BME280;9221;42.646;23.380;2023-06-22T10:49:38;94919.84;;;35.85;33.04
3968;BME280;9221;42.646;23.380;2023-06-22T10:52:05;94882.44;;;35.42;32.99
3968;BME280;9221;42.646;23.380;2023-06-22T10:54:32;94896.19;;;35.70;32.33
3968;BME280;9221;42.646;23.380;2023-06-22T10:56:59;94949.94;;;35.90;32.17
3968;BME280;9221;42.646;23.380;2023-06-22T10:59:24;94910.81;;;35.00;31.74
3968;BME280;9221;42.646;23.380;2023-06-22T11:01:51;94912.22;;;34.97;32.61
3968;BME280;9221;42.646;23.380;2023-06-22T11:04:16;94921.03;;;34.94;32.90
3968;BME280;9221;42.646;23.380;2023-06-22T11:06:43;94801.19;;;34.23;33.95
3968;BME280;9221;42.646;23.380;2023-06-22T11:09:08;94902.56;;;35.19;33.55
3968;BME280;9221;42.646;23.380;2023-06-22T11:11:33;94925.38;;;35.99;31.49
3968;BME280;9221;42.646;23.380;2023-06-22T11:13:59;94876.69;;;36.69;29.60
3968;BME280;9221;42.646;23.380;2023-06-22T11:16:25;94891.44;;;36.73;29.73
3968;BME280;9221;42.646;23.380;2023-06-22T11:18:50;94771.63;;;35.99;30.06
3968;BME280;9221;42.646;23.380;2023-06-22T11:21:16;94869.66;;;37.00;29.21
3968;BME280;9221;42.646;23.380;2023-06-22T11:23:42;94904.88;;;37.12;28.54
3968;BME280;9221;42.646;23.380;2023-06-22T11:26:07;94900.44;;;37.47;28.73
3968;BME280;9221;42.646;23.380;2023-06-22T11:28:33;94889.63;;;37.51;28.52
3968;BME280;9221;42.646;23.380;2023-06-22T11:30:58;94908.00;;;37.64;28.84
3968;BME280;9221;42.646;23.380;2023-06-22T11:33:24;94898.25;;;37.35;29.06
3968;BME280;9221;42.646;23.380;2023-06-22T11:35:49;94898.84;;;37.55;30.18
3968;BME280;9221;42.646;23.380;2023-06-22T11:38:15;94878.09;;;37.26;29.50
3968;BME280;9221;42.646;23.380;2023-06-22T11:40:40;94891.66;;;37.00;29.79
3968;BME280;9221;42.646;23.380;2023-06-22T11:43:05;94906.09;;;37.05;29.45
3968;BME280;9221;42.646;23.380;2023-06-22T11:45:31;94846.63;;;36.36;29.72
3968;BME280;9221;42.646;23.380;2023-06-22T11:47:56;94893.06;;;36.74;29.94
3968;BME280;9221;42.646;23.380;2023-06-22T11:50:22;94888.06;;;36.76;30.05
3968;BME280;9221;42.646;23.380;2023-06-22T11:52:47;94887.53;;;37.11;28.94
3968;BME280;9221;42.646;23.380;2023-06-22T11:55:13;94838.09;;;36.97;28.45
3968;BME280;9221;42.646;23.380;2023-06-22T11:57:52;94881.50;;;37.46;29.78
3968;BME280;9221;42.646;23.380;2023-06-22T12:00:18;94865.31;;;36.62;29.99
3968;BME280;9221;42.646;23.380;2023-06-22T12:02:44;94868.72;;;36.82;29.71
3968;BME280;9221;42.646;23.380;2023-06-22T12:05:12;94875.88;;;37.28;28.99
3968;BME280;9221;42.646;23.380;2023-06-22T12:07:38;94861.75;;;36.98;29.52
3968;BME280;9221;42.646;23.380;2023-06-22T12:10:03;94874.38;;;35.65;31.71
3968;BME280;9221;42.646;23.380;2023-06-22T12:12:29;94870.38;;;35.71;32.83
3968;BME280;9221;42.646;23.380;2023-06-22T12:14:55;94861.50;;;36.07;33.47
3968;BME280;9221;42.646;23.380;2023-06-22T12:17:20;94902.88;;;35.83;31.55
3968;BME280;9221;42.646;23.380;2023-06-22T12:19:45;94891.81;;;35.55;32.97
3968;BME280;9221;42.646;23.380;2023-06-22T12:22:11;94894.72;;;34.55;36.96
3968;BME280;9221;42.646;23.380;2023-06-22T12:24:36;94849.78;;;33.64;38.47
3968;BME280;9221;42.646;23.380;2023-06-22T12:27:02;94875.84;;;33.56;39.68
3968;BME280;9221;42.646;23.380;2023-06-22T12:29:28;94894.84;;;33.08;40.97
3968;BME280;9221;42.646;23.380;2023-06-22T12:31:54;94838.06;;;32.15;42.34
3968;BME280;9221;42.646;23.380;2023-06-22T12:34:19;94947.03;;;31.60;44.04
3968;BME280;9221;42.646;23.380;2023-06-22T12:36:44;94853.25;;;30.58;46.06
3968;BME280;9221;42.646;23.380;2023-06-22T12:39:11;94922.09;;;30.59;49.09
3968;BME280;9221;42.646;23.380;2023-06-22T12:41:36;94926.84;;;29.73;54.27
3968;BME280;9221;42.646;23.380;2023-06-22T12:44:02;94865.75;;;28.18;61.83
3968;BME280;9221;42.646;23.380;2023-06-22T12:46:27;94935.75;;;28.21;67.75
3968;BME280;9221;42.646;23.380;2023-06-22T12:48:53;94833.84;;;27.02;69.79
3968;BME280;9221;42.646;23.380;2023-06-22T12:51:22;94931.66;;;27.57;75.08
3968;BME280;9221;42.646;23.380;2023-06-22T12:53:47;94943.78;;;27.94;73.67
3968;BME280;9221;42.646;23.380;2023-06-22T12:56:13;94940.91;;;27.10;74.38
3968;BME280;9221;42.646;23.380;2023-06-22T12:58:38;95024.75;;;26.35;75.50
3968;BME280;9221;42.646;23.380;2023-06-22T13:01:04;94950.13;;;25.99;78.94
3968;BME280;9221;42.646;23.380;2023-06-22T13:03:29;94906.38;;;25.38;80.44
3968;BME280;9221;42.646;23.380;2023-06-22T13:05:54;94912.03;;;25.48;82.47
3968;BME280;9221;42.646;23.380;2023-06-22T13:08:20;94894.41;;;25.33;82.30